sensor_id;sensor_type;location;lat;lon;timestamp;P1;durP1;ratioP1;P2;durP2;ratioP2
16401;SDS011;8310;44.626;11.176;2022-07-21T00:00:20;10.77;;;9.82;;
16401;SDS011;8310;44.626;11.176;2022-07-21T00:02:49;10.82;;;9.80;;
16401;SDS011;8310;44.626;11.176;2022-07-21T00:05:18;11.15;;;9.95;;
16401;SDS011;8310;44.626;11.176;2022-07-21T00:07:47;10.82;;;9.82;;
16401;SDS011;8310;44.626;11.176;2022-07-21T00:10:14;11.50;;;10.23;;
16401;SDS011;8310;44.626;11.176;2022-07-21T00:12:43;12.65;;;10.27;;
16401;SDS011;8310;44.626;11.176;2022-07-21T00:15:12;10.55;;;9.45;;
16401;SDS011;8310;44.626;11.176;2022-07-21T00:17:41;11.30;;;10.18;;
16401;SDS011;8310;44.626;11.176;2022-07-21T00:20:13;10.57;;;9.68;;
16401;SDS011;8310;44.626;11.176;2022-07-21T00:22:44;11.43;;;10.48;;
16401;SDS011;8310;44.626;11.176;2022-07-21T00:25:12;11.25;;;10.15;;
16401;SDS011;8310;44.626;11.176;2022-07-21T00:27:41;10.65;;;9.85;;
16401;SDS011;8310;44.626;11.176;2022-07-21T00:30:10;10.85;;;9.85;;
16401;SDS011;8310;44.626;11.176;2022-07-21T00:32:39;11.75;;;10.55;;
16401;SDS011;8310;44.626;11.176;2022-07-21T00:35:07;11.07;;;9.98;;
16401;SDS011;8310;44.626;11.176;2022-07-21T00:37:35;11.25;;;10.25;;
16401;SDS011;8310;44.626;11.176;2022-07-21T00:40:04;11.00;;;9.93;;
16401;SDS011;8310;44.626;11.176;2022-07-21T00:42:34;11.15;;;10.10;;
16401;SDS011;8310;44.626;11.176;2022-07-21T00:45:02;10.65;;;9.65;;
16401;SDS011;8310;44.626;11.176;2022-07-21T00:47:32;10.95;;;9.85;;
16401;SDS011;8310;44.626;11.176;2022-07-21T00:50:02;10.55;;;9.63;;
16401;SDS011;8310;44.626;11.176;2022-07-21T00:52:31;13.23;;;9.52;;
16401;SDS011;8310;44.626;11.176;2022-07-21T00:55:00;10.35;;;9.35;;
16401;SDS011;8310;44.626;11.176;2022-07-21T00:57:30;11.00;;;9.98;;
16401;SDS011;8310;44.626;11.176;2022-07-21T00:59:58;10.75;;;9.70;;
16401;SDS011;8310;44.626;11.176;2022-07-21T01:02:25;10.10;;;9.25;;
16401;SDS011;8310;44.626;11.176;2022-07-21T01:04:53;11.10;;;9.15;;
16401;SDS011;8310;44.626;11.176;2022-07-21T01:07:20;10.70;;;9.70;;
16401;SDS011;8310;44.626;11.176;2022-07-21T01:09:48;10.60;;;9.30;;
16401;SDS011;8310;44.626;11.176;2022-07-21T01:12:16;10.93;;;9.98;;
16401;SDS011;8310;44.626;11.176;2022-07-21T01:14:46;10.07;;;9.07;;
16401;SDS011;8310;44.626;11.176;2022-07-21T01:17:17;10.60;;;9.70;;
16401;SDS011;8310;44.626;11.176;2022-07-21T01:19:45;12.70;;;11.07;;
16401;SDS011;8310;44.626;11.176;2022-07-21T01:22:14;10.98;;;10.05;;
16401;SDS011;8310;44.626;11.176;2022-07-21T01:24:42;11.13;;;10.10;;
16401;SDS011;8310;44.626;11.176;2022-07-21T01:27:10;10.65;;;9.65;;
16401;SDS011;8310;44.626;11.176;2022-07-21T01:29:38;10.85;;;9.73;;
16401;SDS011;8310;44.626;11.176;2022-07-21T01:32:06;11.20;;;10.20;;
16401;SDS011;8310;44.626;11.176;2022-07-21T01:34:34;10.85;;;9.32;;
16401;SDS011;8310;44.626;11.176;2022-07-21T01:37:03;9.90;;;8.95;;
16401;SDS011;8310;44.626;11.176;2022-07-21T01:39:33;10.68;;;9.63;;
16401;SDS011;8310;44.626;11.176;2022-07-21T01:42:17;12.43;;;9.80;;
16401;SDS011;8310;44.626;11.176;2022-07-21T01:44:45;10.65;;;9.30;;
16401;SDS011;8310;44.626;11.176;2022-07-21T01:47:13;10.93;;;9.90;;
16401;SDS011;8310;44.626;11.176;2022-07-21T01:49:42;11.25;;;10.05;;
16401;SDS011;8310;44.626;11.176;2022-07-21T01:52:09;12.05;;;9.65;;
16401;SDS011;8310;44.626;11.176;2022-07-21T01:54:39;10.75;;;9.77;;
16401;SDS011;8310;44.626;11.176;2022-07-21T01:57:06;10.60;;;9.65;;
16401;SDS011;8310;44.626;11.176;2022-07-21T01:59:34;10.57;;;9.55;;
16401;SDS011;8310;44.626;11.176;2022-07-21T02:02:02;10.52;;;9.52;;
16401;SDS011;8310;44.626;11.176;2022-07-21T02:04:29;9.45;;;8.57;;
16401;SDS011;8310;44.626;11.176;2022-07-21T02:06:59;11.23;;;9.32;;
16401;SDS011;8310;44.626;11.176;2022-07-21T02:09:27;9.85;;;9.05;;
16401;SDS011;8310;44.626;11.176;2022-07-21T02:11:57;10.40;;;9.25;;
16401;SDS011;8310;44.626;11.176;2022-07-21T02:14:25;10.63;;;9.60;;
16401;SDS011;8310;44.626;11.176;2022-07-21T02:16:52;9.43;;;8.63;;
16401;SDS011;8310;44.626;11.176;2022-07-21T02:19:20;9.40;;;8.55;;
16401;SDS011;8310;44.626;11.176;2022-07-21T02:21:48;10.07;;;9.05;;
16401;SDS011;8310;44.626;11.176;2022-07-21T02:24:16;11.77;;;8.93;;
16401;SDS011;8310;44.626;11.176;2022-07-21T02:26:43;10.02;;;9.05;;
16401;SDS011;8310;44.626;11.176;2022-07-21T02:29:12;8.60;;;7.80;;
16401;SDS011;8310;44.626;11.176;2022-07-21T02:31:40;8.55;;;7.75;;
16401;SDS011;8310;44.626;11.176;2022-07-21T02:34:09;7.97;;;7.28;;
16401;SDS011;8310;44.626;11.176;2022-07-21T02:36:36;9.27;;;7.82;;
16401;SDS011;8310;44.626;11.176;2022-07-21T02:39:04;8.23;;;7.53;;
16401;SDS011;8310;44.626;11.176;2022-07-21T02:41:32;8.68;;;7.88;;
16401;SDS011;8310;44.626;11.176;2022-07-21T02:44:00;8.73;;;7.93;;
16401;SDS011;8310;44.626;11.176;2022-07-21T02:46:29;9.18;;;8.27;;
16401;SDS011;8310;44.626;11.176;2022-07-21T02:48:56;9.68;;;8.60;;
16401;SDS011;8310;44.626;11.176;2022-07-21T02:51:29;10.25;;;8.30;;
16401;SDS011;8310;44.626;11.176;2022-07-21T02:53:57;9.77;;;8.75;;
16401;SDS011;8310;44.626;11.176;2022-07-21T02:56:25;9.82;;;8.73;;
16401;SDS011;8310;44.626;11.176;2022-07-21T02:58:52;10.10;;;9.13;;
16401;SDS011;8310;44.626;11.176;2022-07-21T03:01:20;10.20;;;9.23;;
16401;SDS011;8310;44.626;11.176;2022-07-21T03:03:50;9.52;;;8.52;;
16401;SDS011;8310;44.626;11.176;2022-07-21T03:06:17;9.70;;;8.85;;
16401;SDS011;8310;44.626;11.176;2022-07-21T03:08:44;9.13;;;8.32;;
16401;SDS011;8310;44.626;11.176;2022-07-21T03:11:12;9.77;;;8.43;;
16401;SDS011;8310;44.626;11.176;2022-07-21T03:13:39;9.05;;;8.25;;
16401;SDS011;8310;44.626;11.176;2022-07-21T03:16:07;8.88;;;8.10;;
16401;SDS011;8310;44.626;11.176;2022-07-21T03:18:35;9.18;;;8.38;;
16401;SDS011;8310;44.626;11.176;2022-07-21T03:21:05;9.40;;;8.32;;
16401;SDS011;8310;44.626;11.176;2022-07-21T03:23:32;11.30;;;8.35;;
16401;SDS011;8310;44.626;11.176;2022-07-21T03:26:00;8.80;;;7.88;;
16401;SDS011;8310;44.626;11.176;2022-07-21T03:28:28;8.90;;;7.90;;
16401;SDS011;8310;44.626;11.176;2022-07-21T03:30:56;9.90;;;8.90;;
16401;SDS011;8310;44.626;11.176;2022-07-21T03:33:24;10.15;;;8.77;;
16401;SDS011;8310;44.626;11.176;2022-07-21T03:35:52;9.75;;;8.80;;
16401;SDS011;8310;44.626;11.176;2022-07-21T03:38:21;12.48;;;8.57;;
16401;SDS011;8310;44.626;11.176;2022-07-21T03:40:48;10.15;;;9.10;;
16401;SDS011;8310;44.626;11.176;2022-07-21T03:43:16;10.00;;;9.07;;
16401;SDS011;8310;44.626;11.176;2022-07-21T03:45:44;9.98;;;9.02;;
16401;SDS011;8310;44.626;11.176;2022-07-21T03:48:14;9.70;;;8.73;;
16401;SDS011;8310;44.626;11.176;2022-07-21T03:50:44;10.27;;;9.27;;
16401;SDS011;8310;44.626;11.176;2022-07-21T03:53:12;9.50;;;8.60;;
16401;SDS011;8310;44.626;11.176;2022-07-21T03:55:41;11.60;;;9.77;;
16401;SDS011;8310;44.626;11.176;2022-07-21T03:58:08;9.70;;;8.80;;
16401;SDS011;8310;44.626;11.176;2022-07-21T04:00:37;10.10;;;8.55;;
16401;SDS011;8310;44.626;11.176;2022-07-21T04:03:06;10.52;;;8.82;;
16401;SDS011;8310;44.626;11.176;2022-07-21T04:05:34;9.77;;;8.88;;
16401;SDS011;8310;44.626;11.176;2022-07-21T04:08:03;9.95;;;8.77;;
16401;SDS011;8310;44.626;11.176;2022-07-21T04:10:35;10.00;;;9.15;;
16401;SDS011;8310;44.626;11.176;2022-07-21T04:13:07;12.02;;;8.98;;
16401;SDS011;8310;44.626;11.176;2022-07-21T04:15:37;8.73;;;7.88;;
16401;SDS011;8310;44.626;11.176;2022-07-21T04:18:06;8.77;;;8.05;;
16401;SDS011;8310;44.626;11.176;2022-07-21T04:20:35;10.13;;;8.52;;
16401;SDS011;8310;44.626;11.176;2022-07-21T04:23:03;8.55;;;7.90;;
16401;SDS011;8310;44.626;11.176;2022-07-21T04:25:31;13.10;;;8.95;;
16401;SDS011;8310;44.626;11.176;2022-07-21T04:28:00;11.10;;;8.80;;
16401;SDS011;8310;44.626;11.176;2022-07-21T04:30:30;10.02;;;7.78;;
16401;SDS011;8310;44.626;11.176;2022-07-21T04:32:57;9.15;;;8.13;;
16401;SDS011;8310;44.626;11.176;2022-07-21T04:35:25;11.35;;;9.00;;
16401;SDS011;8310;44.626;11.176;2022-07-21T04:37:53;10.68;;;9.05;;
16401;SDS011;8310;44.626;11.176;2022-07-21T04:40:20;12.27;;;9.05;;
16401;SDS011;8310;44.626;11.176;2022-07-21T04:42:48;11.30;;;9.15;;
16401;SDS011;8310;44.626;11.176;2022-07-21T04:45:16;10.10;;;9.13;;
16401;SDS011;8310;44.626;11.176;2022-07-21T04:47:47;9.52;;;8.52;;
16401;SDS011;8310;44.626;11.176;2022-07-21T04:50:15;8.90;;;8.05;;
16401;SDS011;8310;44.626;11.176;2022-07-21T04:52:44;9.32;;;8.43;;
16401;SDS011;8310;44.626;11.176;2022-07-21T04:55:13;10.02;;;9.05;;
16401;SDS011;8310;44.626;11.176;2022-07-21T04:57:41;10.90;;;8.60;;
16401;SDS011;8310;44.626;11.176;2022-07-21T05:00:11;8.75;;;8.05;;
16401;SDS011;8310;44.626;11.176;2022-07-21T05:02:44;10.18;;;9.18;;
16401;SDS011;8310;44.626;11.176;2022-07-21T05:05:14;9.38;;;8.38;;
16401;SDS011;8310;44.626;11.176;2022-07-21T05:07:42;12.85;;;9.45;;
16401;SDS011;8310;44.626;11.176;2022-07-21T05:10:11;11.63;;;9.15;;
16401;SDS011;8310;44.626;11.176;2022-07-21T05:12:41;9.70;;;8.80;;
16401;SDS011;8310;44.626;11.176;2022-07-21T05:15:10;10.43;;;9.10;;
16401;SDS011;8310;44.626;11.176;2022-07-21T05:17:37;10.35;;;9.35;;
16401;SDS011;8310;44.626;11.176;2022-07-21T05:20:09;9.45;;;8.52;;
16401;SDS011;8310;44.626;11.176;2022-07-21T05:22:37;10.02;;;9.15;;
16401;SDS011;8310;44.626;11.176;2022-07-21T05:25:05;9.95;;;8.70;;
16401;SDS011;8310;44.626;11.176;2022-07-21T05:27:33;10.18;;;9.00;;
16401;SDS011;8310;44.626;11.176;2022-07-21T05:30:01;9.27;;;8.00;;
16401;SDS011;8310;44.626;11.176;2022-07-21T05:32:30;9.65;;;8.82;;
16401;SDS011;8310;44.626;11.176;2022-07-21T05:34:58;10.48;;;9.40;;
16401;SDS011;8310;44.626;11.176;2022-07-21T05:37:27;14.50;;;9.10;;
16401;SDS011;8310;44.626;11.176;2022-07-21T05:39:54;10.15;;;9.10;;
16401;SDS011;8310;44.626;11.176;2022-07-21T05:42:22;10.55;;;9.65;;
16401;SDS011;8310;44.626;11.176;2022-07-21T05:44:49;10.15;;;9.35;;
16401;SDS011;8310;44.626;11.176;2022-07-21T05:47:18;10.63;;;9.70;;
16401;SDS011;8310;44.626;11.176;2022-07-21T05:49:46;11.10;;;10.13;;
16401;SDS011;8310;44.626;11.176;2022-07-21T05:52:14;11.30;;;9.57;;
16401;SDS011;8310;44.626;11.176;2022-07-21T05:54:42;9.80;;;8.80;;
16401;SDS011;8310;44.626;11.176;2022-07-21T05:57:11;8.60;;;7.90;;
16401;SDS011;8310;44.626;11.176;2022-07-21T05:59:38;10.00;;;8.15;;
16401;SDS011;8310;44.626;11.176;2022-07-21T06:02:07;9.93;;;8.25;;
16401;SDS011;8310;44.626;11.176;2022-07-21T06:04:35;10.13;;;9.13;;
16401;SDS011;8310;44.626;11.176;2022-07-21T06:07:03;9.40;;;8.55;;
16401;SDS011;8310;44.626;11.176;2022-07-21T06:09:30;10.77;;;9.70;;
16401;SDS011;8310;44.626;11.176;2022-07-21T06:11:59;10.63;;;9.43;;
16401;SDS011;8310;44.626;11.176;2022-07-21T06:14:27;14.25;;;10.57;;
16401;SDS011;8310;44.626;11.176;2022-07-21T06:16:54;10.25;;;9.30;;
16401;SDS011;8310;44.626;11.176;2022-07-21T06:19:22;10.30;;;9.27;;
16401;SDS011;8310;44.626;11.176;2022-07-21T06:21:50;10.27;;;9.23;;
16401;SDS011;8310;44.626;11.176;2022-07-21T06:24:19;10.93;;;9.90;;
16401;SDS011;8310;44.626;11.176;2022-07-21T06:26:47;11.35;;;10.13;;
16401;SDS011;8310;44.626;11.176;2022-07-21T06:29:18;17.67;;;10.95;;
16401;SDS011;8310;44.626;11.176;2022-07-21T06:31:46;15.90;;;9.50;;
16401;SDS011;8310;44.626;11.176;2022-07-21T06:34:14;9.70;;;8.77;;
16401;SDS011;8310;44.626;11.176;2022-07-21T06:36:42;12.27;;;9.07;;
16401;SDS011;8310;44.626;11.176;2022-07-21T06:39:10;10.05;;;9.25;;
16401;SDS011;8310;44.626;11.176;2022-07-21T06:41:38;10.77;;;9.10;;
16401;SDS011;8310;44.626;11.176;2022-07-21T06:44:06;11.85;;;8.95;;
16401;SDS011;8310;44.626;11.176;2022-07-21T06:46:35;12.63;;;9.70;;
16401;SDS011;8310;44.626;11.176;2022-07-21T06:49:06;12.15;;;10.90;;
16401;SDS011;8310;44.626;11.176;2022-07-21T06:51:34;13.13;;;9.73;;
16401;SDS011;8310;44.626;11.176;2022-07-21T06:54:02;13.65;;;10.52;;
16401;SDS011;8310;44.626;11.176;2022-07-21T06:56:30;12.20;;;10.02;;
16401;SDS011;8310;44.626;11.176;2022-07-21T06:58:58;11.13;;;10.10;;
16401;SDS011;8310;44.626;11.176;2022-07-21T07:01:26;12.02;;;10.95;;
16401;SDS011;8310;44.626;11.176;2022-07-21T07:03:56;12.07;;;10.73;;
16401;SDS011;8310;44.626;11.176;2022-07-21T07:06:24;12.05;;;10.95;;
16401;SDS011;8310;44.626;11.176;2022-07-21T07:08:51;11.13;;;10.02;;
16401;SDS011;8310;44.626;11.176;2022-07-21T07:11:19;10.90;;;9.95;;
16401;SDS011;8310;44.626;11.176;2022-07-21T07:13:49;11.05;;;10.05;;
16401;SDS011;8310;44.626;11.176;2022-07-21T07:16:16;10.63;;;9.63;;
16401;SDS011;8310;44.626;11.176;2022-07-21T07:18:44;10.77;;;9.50;;
16401;SDS011;8310;44.626;11.176;2022-07-21T07:21:14;12.00;;;10.00;;
16401;SDS011;8310;44.626;11.176;2022-07-21T07:23:42;9.57;;;8.68;;
16401;SDS011;8310;44.626;11.176;2022-07-21T07:26:11;12.40;;;8.20;;
16401;SDS011;8310;44.626;11.176;2022-07-21T07:28:39;10.13;;;9.25;;
16401;SDS011;8310;44.626;11.176;2022-07-21T07:31:07;8.45;;;7.70;;
16401;SDS011;8310;44.626;11.176;2022-07-21T07:33:35;9.15;;;8.23;;
16401;SDS011;8310;44.626;11.176;2022-07-21T07:36:03;8.88;;;8.00;;
16401;SDS011;8310;44.626;11.176;2022-07-21T07:38:33;8.32;;;7.63;;
16401;SDS011;8310;44.626;11.176;2022-07-21T07:41:00;8.20;;;7.38;;
16401;SDS011;8310;44.626;11.176;2022-07-21T07:43:28;7.43;;;6.72;;
16401;SDS011;8310;44.626;11.176;2022-07-21T07:45:56;7.78;;;6.85;;
16401;SDS011;8310;44.626;11.176;2022-07-21T07:48:25;7.30;;;6.60;;
16401;SDS011;8310;44.626;11.176;2022-07-21T07:50:53;11.65;;;6.97;;
16401;SDS011;8310;44.626;11.176;2022-07-21T07:53:24;7.10;;;6.50;;
16401;SDS011;8310;44.626;11.176;2022-07-21T07:55:53;6.57;;;6.07;;
16401;SDS011;8310;44.626;11.176;2022-07-21T07:58:21;5.97;;;5.40;;
16401;SDS011;8310;44.626;11.176;2022-07-21T08:00:50;6.00;;;5.50;;
16401;SDS011;8310;44.626;11.176;2022-07-21T08:03:17;6.07;;;5.63;;
16401;SDS011;8310;44.626;11.176;2022-07-21T08:05:47;5.72;;;4.93;;
16401;SDS011;8310;44.626;11.176;2022-07-21T08:08:15;6.35;;;5.30;;
16401;SDS011;8310;44.626;11.176;2022-07-21T08:10:44;5.38;;;4.72;;
16401;SDS011;8310;44.626;11.176;2022-07-21T08:13:14;7.18;;;4.40;;
16401;SDS011;8310;44.626;11.176;2022-07-21T08:15:45;5.13;;;4.68;;
16401;SDS011;8310;44.626;11.176;2022-07-21T08:18:13;6.18;;;4.97;;
16401;SDS011;8310;44.626;11.176;2022-07-21T08:20:42;4.97;;;4.38;;
16401;SDS011;8310;44.626;11.176;2022-07-21T08:23:11;4.72;;;4.32;;
16401;SDS011;8310;44.626;11.176;2022-07-21T08:25:40;6.90;;;4.43;;
16401;SDS011;8310;44.626;11.176;2022-07-21T08:28:08;5.00;;;4.50;;
16401;SDS011;8310;44.626;11.176;2022-07-21T08:30:39;5.20;;;4.70;;
16401;SDS011;8310;44.626;11.176;2022-07-21T08:33:06;5.18;;;4.57;;
16401;SDS011;8310;44.626;11.176;2022-07-21T08:35:34;5.78;;;4.80;;
16401;SDS011;8310;44.626;11.176;2022-07-21T08:38:02;5.05;;;4.25;;
16401;SDS011;8310;44.626;11.176;2022-07-21T08:40:33;4.80;;;4.50;;
16401;SDS011;8310;44.626;11.176;2022-07-21T08:43:02;6.18;;;4.38;;
16401;SDS011;8310;44.626;11.176;2022-07-21T08:45:31;4.82;;;4.32;;
16401;SDS011;8310;44.626;11.176;2022-07-21T08:48:01;5.97;;;4.50;;
16401;SDS011;8310;44.626;11.176;2022-07-21T08:50:29;3.78;;;3.40;;
16401;SDS011;8310;44.626;11.176;2022-07-21T08:53:01;16.60;;;6.22;;
16401;SDS011;8310;44.626;11.176;2022-07-21T08:55:30;7.35;;;4.68;;
16401;SDS011;8310;44.626;11.176;2022-07-21T08:57:59;3.80;;;3.50;;
16401;SDS011;8310;44.626;11.176;2022-07-21T09:00:28;4.63;;;4.20;;
16401;SDS011;8310;44.626;11.176;2022-07-21T09:03:10;4.30;;;3.90;;
16401;SDS011;8310;44.626;11.176;2022-07-21T09:05:41;5.75;;;3.95;;
16401;SDS011;8310;44.626;11.176;2022-07-21T09:08:09;7.00;;;4.00;;
16401;SDS011;8310;44.626;11.176;2022-07-21T09:10:38;8.25;;;4.38;;
16401;SDS011;8310;44.626;11.176;2022-07-21T09:13:06;4.75;;;3.63;;
16401;SDS011;8310;44.626;11.176;2022-07-21T09:15:34;4.68;;;4.03;;
16401;SDS011;8310;44.626;11.176;2022-07-21T09:18:05;6.03;;;3.97;;
16401;SDS011;8310;44.626;11.176;2022-07-21T09:20:37;3.97;;;3.65;;
16401;SDS011;8310;44.626;11.176;2022-07-21T09:23:07;7.13;;;4.25;;
16401;SDS011;8310;44.626;11.176;2022-07-21T09:25:40;8.18;;;4.53;;
16401;SDS011;8310;44.626;11.176;2022-07-21T09:28:10;4.07;;;3.70;;
16401;SDS011;8310;44.626;11.176;2022-07-21T09:30:53;5.40;;;3.78;;
16401;SDS011;8310;44.626;11.176;2022-07-21T09:33:25;3.67;;;3.40;;
16401;SDS011;8310;44.626;11.176;2022-07-21T09:35:59;5.03;;;3.53;;
16401;SDS011;8310;44.626;11.176;2022-07-21T09:38:30;3.53;;;3.30;;
16401;SDS011;8310;44.626;11.176;2022-07-21T09:41:05;3.78;;;3.47;;
16401;SDS011;8310;44.626;11.176;2022-07-21T09:43:35;3.88;;;3.58;;
16401;SDS011;8310;44.626;11.176;2022-07-21T09:46:11;3.72;;;3.17;;
16401;SDS011;8310;44.626;11.176;2022-07-21T09:48:44;3.25;;;3.10;;
16401;SDS011;8310;44.626;11.176;2022-07-21T09:51:21;3.50;;;3.30;;
16401;SDS011;8310;44.626;11.176;2022-07-21T09:53:55;3.70;;;3.40;;
16401;SDS011;8310;44.626;11.176;2022-07-21T09:56:25;3.60;;;3.30;;
16401;SDS011;8310;44.626;11.176;2022-07-21T09:58:55;4.00;;;3.20;;
16401;SDS011;8310;44.626;11.176;2022-07-21T10:01:24;3.20;;;2.90;;
16401;SDS011;8310;44.626;11.176;2022-07-21T10:03:52;5.25;;;3.72;;
16401;SDS011;8310;44.626;11.176;2022-07-21T10:06:22;5.30;;;3.67;;
16401;SDS011;8310;44.626;11.176;2022-07-21T10:08:52;3.47;;;3.20;;
16401;SDS011;8310;44.626;11.176;2022-07-21T10:11:23;3.70;;;3.40;;
16401;SDS011;8310;44.626;11.176;2022-07-21T10:13:51;4.50;;;4.03;;
16401;SDS011;8310;44.626;11.176;2022-07-21T10:16:18;3.15;;;2.85;;
16401;SDS011;8310;44.626;11.176;2022-07-21T10:18:52;3.17;;;2.97;;
16401;SDS011;8310;44.626;11.176;2022-07-21T10:21:41;3.50;;;3.20;;
16401;SDS011;8310;44.626;11.176;2022-07-21T10:24:12;3.80;;;3.55;;
16401;SDS011;8310;44.626;11.176;2022-07-21T10:32:24;3.50;;;3.20;;
16401;SDS011;8310;44.626;11.176;2022-07-21T10:34:54;3.30;;;3.00;;
16401;SDS011;8310;44.626;11.176;2022-07-21T10:40:34;3.83;;;3.15;;
16401;SDS011;8310;44.626;11.176;2022-07-21T10:49:02;3.65;;;3.35;;
16401;SDS011;8310;44.626;11.176;2022-07-21T10:51:34;3.05;;;2.85;;
16401;SDS011;8310;44.626;11.176;2022-07-21T10:54:24;3.28;;;3.00;;
16401;SDS011;8310;44.626;11.176;2022-07-21T11:02:49;3.20;;;2.85;;
16401;SDS011;8310;44.626;11.176;2022-07-21T11:05:18;3.75;;;3.45;;
16401;SDS011;8310;44.626;11.176;2022-07-21T11:10:42;3.33;;;3.03;;
16401;SDS011;8310;44.626;11.176;2022-07-21T11:13:11;4.40;;;2.83;;
16401;SDS011;8310;44.626;11.176;2022-07-21T11:15:54;3.22;;;2.50;;
16401;SDS011;8310;44.626;11.176;2022-07-21T11:18:24;3.08;;;2.70;;
16401;SDS011;8310;44.626;11.176;2022-07-21T11:21:00;3.67;;;2.90;;
16401;SDS011;8310;44.626;11.176;2022-07-21T11:23:36;3.30;;;3.10;;
16401;SDS011;8310;44.626;11.176;2022-07-21T11:26:07;4.15;;;2.90;;
16401;SDS011;8310;44.626;11.176;2022-07-21T11:28:35;2.72;;;2.55;;
16401;SDS011;8310;44.626;11.176;2022-07-21T11:31:07;4.47;;;3.22;;
16401;SDS011;8310;44.626;11.176;2022-07-21T11:33:43;3.30;;;2.70;;
16401;SDS011;8310;44.626;11.176;2022-07-21T11:36:23;4.15;;;3.28;;
16401;SDS011;8310;44.626;11.176;2022-07-21T11:38:56;3.47;;;3.28;;
16401;SDS011;8310;44.626;11.176;2022-07-21T11:41:26;3.90;;;3.60;;
16401;SDS011;8310;44.626;11.176;2022-07-21T11:43:54;4.47;;;2.80;;
16401;SDS011;8310;44.626;11.176;2022-07-21T11:46:22;4.70;;;2.92;;
16401;SDS011;8310;44.626;11.176;2022-07-21T11:48:59;3.05;;;2.95;;
16401;SDS011;8310;44.626;11.176;2022-07-21T11:51:28;2.90;;;2.80;;
16401;SDS011;8310;44.626;11.176;2022-07-21T11:53:56;2.95;;;2.55;;
16401;SDS011;8310;44.626;11.176;2022-07-21T11:56:26;3.40;;;3.10;;
16401;SDS011;8310;44.626;11.176;2022-07-21T11:59:07;3.85;;;3.00;;
16401;SDS011;8310;44.626;11.176;2022-07-21T12:01:56;3.72;;;3.20;;
16401;SDS011;8310;44.626;11.176;2022-07-21T12:04:27;4.28;;;3.28;;
16401;SDS011;8310;44.626;11.176;2022-07-21T12:07:16;3.97;;;3.25;;
16401;SDS011;8310;44.626;11.176;2022-07-21T12:09:46;3.33;;;3.13;;
16401;SDS011;8310;44.626;11.176;2022-07-21T12:12:28;3.17;;;2.97;;
16401;SDS011;8310;44.626;11.176;2022-07-21T12:14:57;4.03;;;3.63;;
16401;SDS011;8310;44.626;11.176;2022-07-21T12:17:35;4.22;;;3.00;;
16401;SDS011;8310;44.626;11.176;2022-07-21T12:20:04;4.50;;;3.22;;
16401;SDS011;8310;44.626;11.176;2022-07-21T12:22:34;7.88;;;3.67;;
16401;SDS011;8310;44.626;11.176;2022-07-21T12:25:03;3.63;;;3.28;;
16401;SDS011;8310;44.626;11.176;2022-07-21T12:27:35;3.33;;;3.13;;
16401;SDS011;8310;44.626;11.176;2022-07-21T12:30:04;3.45;;;3.20;;
16401;SDS011;8310;44.626;11.176;2022-07-21T12:32:40;5.57;;;3.22;;
16401;SDS011;8310;44.626;11.176;2022-07-21T12:35:17;3.83;;;3.53;;
16401;SDS011;8310;44.626;11.176;2022-07-21T12:37:53;3.58;;;3.35;;
16401;SDS011;8310;44.626;11.176;2022-07-21T12:40:22;3.25;;;3.05;;
16401;SDS011;8310;44.626;11.176;2022-07-21T12:42:56;3.38;;;3.10;;
16401;SDS011;8310;44.626;11.176;2022-07-21T12:45:31;3.55;;;3.10;;
16401;SDS011;8310;44.626;11.176;2022-07-21T12:48:11;3.28;;;3.00;;
16401;SDS011;8310;44.626;11.176;2022-07-21T12:50:39;3.75;;;3.35;;
16401;SDS011;8310;44.626;11.176;2022-07-21T12:53:07;3.78;;;2.67;;
16401;SDS011;8310;44.626;11.176;2022-07-21T12:55:36;3.20;;;2.78;;
16401;SDS011;8310;44.626;11.176;2022-07-21T12:58:05;3.50;;;3.20;;
16401;SDS011;8310;44.626;11.176;2022-07-21T13:00:33;3.60;;;3.30;;
16401;SDS011;8310;44.626;11.176;2022-07-21T13:03:02;3.60;;;3.30;;
16401;SDS011;8310;44.626;11.176;2022-07-21T13:05:30;3.55;;;3.25;;
16401;SDS011;8310;44.626;11.176;2022-07-21T13:07:57;3.55;;;3.25;;
16401;SDS011;8310;44.626;11.176;2022-07-21T13:10:25;4.78;;;3.15;;
16401;SDS011;8310;44.626;11.176;2022-07-21T13:12:54;3.65;;;3.35;;
16401;SDS011;8310;44.626;11.176;2022-07-21T13:15:24;3.80;;;3.50;;
16401;SDS011;8310;44.626;11.176;2022-07-21T13:17:51;3.40;;;3.10;;
16401;SDS011;8310;44.626;11.176;2022-07-21T13:20:19;3.53;;;3.13;;
16401;SDS011;8310;44.626;11.176;2022-07-21T13:22:47;3.38;;;3.15;;
16401;SDS011;8310;44.626;11.176;2022-07-21T13:25:15;3.20;;;3.00;;
16401;SDS011;8310;44.626;11.176;2022-07-21T13:27:43;3.90;;;3.15;;
16401;SDS011;8310;44.626;11.176;2022-07-21T13:30:11;4.03;;;3.40;;
16401;SDS011;8310;44.626;11.176;2022-07-21T13:32:40;7.38;;;3.88;;
16401;SDS011;8310;44.626;11.176;2022-07-21T13:35:08;3.10;;;2.97;;
16401;SDS011;8310;44.626;11.176;2022-07-21T13:37:36;3.70;;;3.50;;
16401;SDS011;8310;44.626;11.176;2022-07-21T13:40:04;3.33;;;3.10;;
16401;SDS011;8310;44.626;11.176;2022-07-21T13:42:35;3.60;;;3.30;;
16401;SDS011;8310;44.626;11.176;2022-07-21T13:45:03;4.13;;;3.20;;
16401;SDS011;8310;44.626;11.176;2022-07-21T13:47:32;3.78;;;3.08;;
16401;SDS011;8310;44.626;11.176;2022-07-21T13:50:02;4.07;;;3.08;;
16401;SDS011;8310;44.626;11.176;2022-07-21T13:52:31;3.70;;;3.40;;
16401;SDS011;8310;44.626;11.176;2022-07-21T13:55:00;4.88;;;3.13;;
16401;SDS011;8310;44.626;11.176;2022-07-21T13:57:29;7.60;;;3.58;;
16401;SDS011;8310;44.626;11.176;2022-07-21T13:59:57;3.55;;;3.33;;
16401;SDS011;8310;44.626;11.176;2022-07-21T14:02:25;5.53;;;3.40;;
16401;SDS011;8310;44.626;11.176;2022-07-21T14:04:54;4.40;;;3.50;;
16401;SDS011;8310;44.626;11.176;2022-07-21T14:07:24;4.22;;;3.47;;
16401;SDS011;8310;44.626;11.176;2022-07-21T14:09:52;4.57;;;3.50;;
16401;SDS011;8310;44.626;11.176;2022-07-21T14:12:24;3.33;;;3.10;;
16401;SDS011;8310;44.626;11.176;2022-07-21T14:14:55;4.05;;;3.85;;
16401;SDS011;8310;44.626;11.176;2022-07-21T14:17:23;3.22;;;3.03;;
16401;SDS011;8310;44.626;11.176;2022-07-21T14:19:54;4.10;;;3.80;;
16401;SDS011;8310;44.626;11.176;2022-07-21T14:22:22;3.45;;;3.15;;
16401;SDS011;8310;44.626;11.176;2022-07-21T14:24:51;3.65;;;3.35;;
16401;SDS011;8310;44.626;11.176;2022-07-21T14:27:36;3.88;;;3.58;;
16401;SDS011;8310;44.626;11.176;2022-07-21T14:30:04;5.25;;;4.05;;
16401;SDS011;8310;44.626;11.176;2022-07-21T14:32:36;4.82;;;3.55;;
16401;SDS011;8310;44.626;11.176;2022-07-21T14:35:08;4.28;;;3.92;;
16401;SDS011;8310;44.626;11.176;2022-07-21T14:37:36;4.28;;;3.65;;
16401;SDS011;8310;44.626;11.176;2022-07-21T14:40:07;3.83;;;3.20;;
16401;SDS011;8310;44.626;11.176;2022-07-21T14:42:36;4.32;;;3.45;;
16401;SDS011;8310;44.626;11.176;2022-07-21T14:45:04;11.25;;;4.78;;
16401;SDS011;8310;44.626;11.176;2022-07-21T14:47:34;4.22;;;3.85;;
16401;SDS011;8310;44.626;11.176;2022-07-21T14:50:03;3.80;;;3.58;;
16401;SDS011;8310;44.626;11.176;2022-07-21T14:52:31;4.00;;;3.63;;
16401;SDS011;8310;44.626;11.176;2022-07-21T14:55:00;3.63;;;3.42;;
16401;SDS011;8310;44.626;11.176;2022-07-21T14:57:31;3.60;;;3.30;;
16401;SDS011;8310;44.626;11.176;2022-07-21T14:59:59;4.20;;;3.50;;
16401;SDS011;8310;44.626;11.176;2022-07-21T15:02:26;4.13;;;3.63;;
16401;SDS011;8310;44.626;11.176;2022-07-21T15:04:56;6.38;;;3.63;;
16401;SDS011;8310;44.626;11.176;2022-07-21T15:07:25;4.82;;;3.95;;
16401;SDS011;8310;44.626;11.176;2022-07-21T15:09:53;3.50;;;3.20;;
16401;SDS011;8310;44.626;11.176;2022-07-21T15:12:23;3.40;;;3.10;;
16401;SDS011;8310;44.626;11.176;2022-07-21T15:14:52;3.92;;;3.45;;
16401;SDS011;8310;44.626;11.176;2022-07-21T15:17:20;5.93;;;3.63;;